Historique des mesures à Cassis (13260), France
Quotidien Résumé Fevrier 5, 2018 Unités:  Métrique/US    US   Métrique
« Précédent (Jour)
Suivant (Jour) »
Quotidien Hebdomadaire Mensuel Annuel Période au choix
  Maximum: Minimum: Moyenne:
Température: 32 °F /  TemperatureC °C 45.1 °F /  7.3 °C 48.4 °F /  9.1 °C
Point de rosée: 32 °F /  DewpointC °C 39.2 °F /  4.0 °C 41 °F /  5 °C
Humidité: Humidity % 69 % 72 %
Vitesse du vent: WindSpeedKMH mph /  0 km/h - 4.3 mph /  6.9 km/h
Rafales: WindSpeedGustKMH mph /  0 km/h - -
Vent:- - East
Pression: 0 in /  PressurehPa hPa 29.8 in /  1008.7 hPa -
Précipitations: 200.66 in /  7.9 mm    
Historical Graphs
 
 
Mesures pour : Fevrier 5, 2018
Heure Temperature Point de rosée Pression Vent Vitesse du vent Rafales Humidité Pluie (par heure) Conditions
32 °F /  TemperatureC °C 32 °F /  DewpointC °C 0 in /  PressurehPa hPa Calm     Humidity % 0 in /  HourlyPrecipMM mm SoftwareType W/m2
00:12 48.9 °F /  9.4 °C 39.2 °F /  4.0 °C 29.8 in /  1010.7 hPa East 5.0 mph /  8 km/h 6.4 mph /  10.3 km/h 69 % 0 in /  0.0 mm open2300-1.11 W/m2
01:12 49.3 °F /  9.6 °C 39.6 °F /  4.2 °C 29.9 in /  1011.1 hPa SSE 4.7 mph /  7.6 km/h 5.5 mph /  8.9 km/h 69 % 0 in /  0.0 mm open2300-1.11 W/m2
02:12 49.6 °F /  9.8 °C 39.9 °F /  4.4 °C 29.8 in /  1010.4 hPa Calm   2.9 mph /  4.7 km/h 69 % 0 in /  0.0 mm open2300-1.11 W/m2
03:12 48.9 °F /  9.4 °C 40.6 °F /  4.8 °C 29.8 in /  1010.7 hPa ENE 5.0 mph /  8 km/h 5.0 mph /  8 km/h 73 % 0 in /  0.0 mm open2300-1.11 W/m2
04:12 47.5 °F /  8.6 °C 41.4 °F /  5.2 °C 29.8 in /  1010.4 hPa SE 1.4 mph /  2.3 km/h 2.6 mph /  4.2 km/h 79 % 50.8 in /  2.0 mm open2300-1.11 W/m2
05:12 46.4 °F /  8.0 °C 41.2 °F /  5.1 °C 29.8 in /  1010.7 hPa Calm   6.4 mph /  10.3 km/h 82 % 76.2 in /  3.0 mm open2300-1.11 W/m2
06:12 46 °F /  7.8 °C 40.6 °F /  4.8 °C 29.8 in /  1010.0 hPa Calm   6.1 mph /  9.8 km/h 81 % 12.7 in /  0.5 mm open2300-1.11 W/m2
07:12 45.5 °F /  7.5 °C 40.3 °F /  4.6 °C 29.8 in /  1010.0 hPa ESE 4.3 mph /  6.9 km/h 11.9 mph /  19.2 km/h 82 % 12.7 in /  0.5 mm open2300-1.11 W/m2
08:12 45.1 °F /  7.3 °C 39.9 °F /  4.4 °C 29.8 in /  1010.0 hPa SE 5.0 mph /  8 km/h 5.0 mph /  8 km/h 82 % 12.7 in /  0.5 mm open2300-1.11 W/m2
09:12 46.6 °F /  8.1 °C 41.4 °F /  5.2 °C 29.8 in /  1010.0 hPa Calm   2.9 mph /  4.7 km/h 82 % 12.7 in /  0.5 mm open2300-1.11 W/m2
10:12 46.6 °F /  8.1 °C 40.8 °F /  4.9 °C 29.8 in /  1010.7 hPa NE 6.4 mph /  10.3 km/h 8.7 mph /  14 km/h 80 % 0 in /  0.0 mm open2300-1.11 W/m2
11:12 47.5 °F /  8.6 °C 41.5 °F /  5.3 °C 29.8 in /  1010.7 hPa East 7.2 mph /  11.6 km/h 7.6 mph /  12.2 km/h 80 % 0 in /  0.0 mm open2300-1.11 W/m2
12:12 49.8 °F /  9.9 °C 41.7 °F /  5.4 °C 29.8 in /  1010.7 hPa ESE 5.8 mph /  9.3 km/h 13.0 mph /  20.9 km/h 74 % 0 in /  0.0 mm open2300-1.11 W/m2
13:12 51.8 °F /  11.0 °C 43.5 °F /  6.4 °C 29.8 in /  1009.7 hPa ESE 6.1 mph /  9.8 km/h 9.3 mph /  15 km/h 73 % 0 in /  0.0 mm open2300-1.11 W/m2
14:12 52.5 °F /  11.4 °C 43.2 °F /  6.2 °C 29.8 in /  1009.0 hPa ESE 8.2 mph /  13.2 km/h 8.2 mph /  13.2 km/h 70 % 0 in /  0.0 mm open2300-1.11 W/m2
15:12 53.4 °F /  11.9 °C 43.5 °F /  6.4 °C 29.8 in /  1008.7 hPa NNE 9.0 mph /  14.5 km/h 15.4 mph /  24.8 km/h 69 % 0 in /  0.0 mm open2300-1.11 W/m2
16:12 52.3 °F /  11.3 °C 42.4 °F /  5.8 °C 29.8 in /  1008.7 hPa East 6.4 mph /  10.3 km/h 9.3 mph /  15 km/h 69 % 0 in /  0.0 mm open2300-1.11 W/m2
17:12 51.4 °F /  10.8 °C 41.7 °F /  5.4 °C 29.8 in /  1008.7 hPa SE 13.4 mph /  21.6 km/h 13.4 mph /  21.6 km/h 69 % 0 in /  0.0 mm open2300-1.11 W/m2
18:12 49.1 °F /  9.5 °C 42.4 °F /  5.8 °C 29.8 in /  1008.7 hPa Calm   3.2 mph /  5.1 km/h 78 % 12.7 in /  0.5 mm open2300-1.11 W/m2
19:12 49.6 °F /  9.8 °C 43 °F /  6.1 °C 29.8 in /  1009.0 hPa SE 3.2 mph /  5.1 km/h 6.1 mph /  9.8 km/h 78 % 0 in /  0.0 mm open2300-1.11 W/m2
20:12 49.8 °F /  9.9 °C 42.3 °F /  5.7 °C 29.8 in /  1009.4 hPa ENE 1.4 mph /  2.3 km/h 3.5 mph /  5.6 km/h 75 % 0 in /  0.0 mm open2300-1.11 W/m2
21:12 49.8 °F /  9.9 °C 41.7 °F /  5.4 °C 29.8 in /  1009.0 hPa ESE 3.2 mph /  5.1 km/h 6.1 mph /  9.8 km/h 74 % 0 in /  0.0 mm open2300-1.11 W/m2
22:12 50.2 °F /  10.1 °C 41.5 °F /  5.3 °C 29.8 in /  1009.0 hPa East 6.1 mph /  9.8 km/h 6.8 mph /  10.9 km/h 72 % 0 in /  0.0 mm open2300-1.11 W/m2
23:12 50.2 °F /  10.1 °C 41.5 °F /  5.3 °C 29.8 in /  1008.7 hPa East 6.4 mph /  10.3 km/h 10.1 mph /  16.3 km/h 72 % 0 in /  0.0 mm open2300-1.11 W/m2
Observations météo à CASSIS
WU-History script by Weather Underground - 1 mb